Slaughter, LA

8:20 AM CST on December 03, 2016 (GMT -0600)
| | Change Station

Elev -9999 ft 0.00 °N, 0.00 °E | Updated

Heavy Rain
Heavy Rain Mist
°F
Feels Like °F
N
Wind Variable Wind from North
Gusts mph

Today
High -- | Low -- °F
--% Chance of Precip.
Yesterday
High -- | Low -- °F
Precip. -- in
Pressure 30.13 in
Visibility 3.0 miles
Clouds Scattered Clouds 1400 ft
Scattered Clouds 5000 ft
Overcast 7000 ft
Dew Point Not available.
Humidity Not available.
Rainfall --
Snow Depth Not available.
6:46 AM 5:02 PM
Waxing Crescent, 15% visible
METAR KBTR 031353Z 06012KT 3SM +RA BR SCT014 SCT050 OVC070 10/08 A3013 RMK AO2 SLP203 P0015 T01000083
Pressure 30.13 in
Visibility 3.0 miles
Clouds Scattered Clouds 1400 ft
Scattered Clouds 5000 ft
Overcast 7000 ft
Dew Point Not available.
Humidity Not available.
Rainfall --
Snow Depth Not available.
6:46 AM 5:02 PM
Waxing Crescent, 15% visible
METAR KBTR 031353Z 06012KT 3SM +RA BR SCT014 SCT050 OVC070 10/08 A3013 RMK AO2 SLP203 P0015 T01000083

10-Day Weather Forecast

Almanac

Astronomy

Dec. 03, 2016 Rise Set
Actual Time
Civil Twilight
Nautical Twilight
Astronomical Twilight
Moon
Length of Visible Light
Length of Day
Tomorrow will be .
, % of the Moon is Illuminated

Today's Extremes

State Highs State Lows

Community

WunderPhotos

Upload Photos

1,955,446 photos uploaded!

WunderBlog® & News

Nearby

Air Quality

  Air Quality AQ Index Pollutant
Not available.

Snow Depth

Station Depth Elevation

Earthquake Activity

City Distance Mag. Time & Date
Minimum magnitude displayed is 2.5.

Coastal Water Temperatures

Place Temperature

Stations

Nearby Weather Stations

Station Location Temp. Windchill Dew Point Humidity Wind Precip. Elev Updated Type
                   

Watches & Warnings

There are currently no watches in effect.